Terminal Aerodrome Forecast
Issued by NWS

Home | Current Version | Previous Version | Text Only | Print | Product List | Glossary On
Versions: 1 2 3 4 5 6 7 8 9 10 11 12 13 14
000
FTUS45 KRIW 232300
TAFRKS
TAF
KRKS 232329Z 2400/2424 25015G25KT P6SM VCTS SCT100CB BKN150
     FM240300 21010KT P6SM VCSH BKN120
     FM241800 25022G32KT P6SM SCT110=

USA.gov is the U.S. government's official web portal to all federal, state and local government web resources and services.